SMRA20 UAOL 192100
AAXX 19211
20046 42998 42202 11050 21065 30061 40090 52010 80001=
20069 41556 82904 11030 21030 30070 40088 52003 77172 8352/=
20107 41995 01202 11048 21056 30020 40117 52004 74100 333 91003=
20471 42498 70602 11041 21083 30071 40087 52006 83501=
20667 41996 81404 11042 21047 30063 40070 57001 77172 8802/=
20744 42598 61203 11003 21018 30067 40085 52010 85501 333 85622=
20871 42998 70502 11074 21087 30102 40109 57002 87030=
20891 83998 22003 11127 21149 30080 40122 54000 82030=
20946 42997 21701 11026 21045 30073 40086 52005 82030=
20967 42998 81901 11039 21062 30070 40093 57002 8805/=
20978 42898 30204 11084 21099 30053 40091 58005 83030=
21432 41598 52007 11062 21074 39989 40008 57001 70271 82501=
21535 42998 82505 11026 21036 30003 40022 53002 80001=
21636 42498 32808 11033 21068 30015 40046 52006 83500=
21711 42498 83105 11068 21101 30052 40071 52005 86501=
21802 42699 82202 11061 21080 30086 40110 53005 885// 333 88637=
21813 41497 82604 11063 21075 30052 40086 52008 77172 885//=
21908 42999 80000 11080 21116 30058 40139 58003 8802/=
21921 42599 82005 11083 21111 30085 40127 52009 885//=
21937 12/// /2001 11103 21124 30008 40129 52014 60002 333 21108=
21946 11297 82603 11084 21096 30035 40114 52007 69952 77172 886//  333 21085 47001 88703 555 7995/=
21978 12998 32404 11053 21082 30113 40120 52006 60002 82031 333 21086 3/110 46002 91107 555 7000/=
21982 42598 81504 10010 21029 30097 40124 57003 885// 333 91107=
22100 42/// /2701 10006 20005 39997 40141 51011 333 91002=
22101 42/// /2001 11006 21006 30008 40135 52011 333 91002=
22113 42497 81603 10022 20014 30064 40127 52015 87600 333 91005=
22165 42598 22903 10050 20034 30012 40072 52010 81570=
22217 42497 53601 10011 20002 30103 40135 52019 82535 333 91003=
22235 42/// /2901 10026 20021 39913 40107 52019 333 91002=
22271 42598 73201 10048 20038 30065 40071 52013 8750/=
22292 42497 80903 10012 20004 30058 40063 52014 886//=
22312 83/// ///// 1//// 2//// 3//// 4//// 5////=
22324 42598 83403 10021 20012 30069 40118 52019 86931 333 91005=
22334 43/// /3503 10038 20020 30102 40109 52018 333 91005=
22349 42/// /3602 10021 20015 30079 40090 52019 333 91004=
22365 42498 80602 10037 20020 30050 40077 52018 885//=
22383 42597 83601 10005 21003 30042 40059 53018 885// 333 88632=
22408 42499 /3502 10023 20004 39995 40144 52021 333   88610=
22429 42498 73203 10043 20028 30102 40111 52018 875// 333 87612=
22438 42498 83505 10043 20018 30080 40102 52017 885// 333 91110=
22446 41496 80503 10030 20028 39985 40081 52019 76162 8872/=
22456 41496 83601 10012 20009 39990 40078 52021 75065 886//=
22520 42498 83003 10036 20014 30108 40116 52020 885//=
22525 42/// /0102 10035 20020 30108 40121 52023=
22550 41457 83002 10043 20036 30064 40074 52013 78082 889// 333 88618=
22551 41496 83402 10035 20034 30073 40077 53017 76162 8872/=
22559 42498 72802 10037 20028 30056 40072 52012 86930 333 86616=
22563 41396 83602 10018 20016 30029 40064 52022 75155 886// 333 88707=
22573 41499 53202 11005 21011 39966 40055 52020 70284 82401=
22583 41584 53202 11005 21007 39971 40052 52017 70225 85500=
22602 42473 73302 10049 20024 39916 40139 52017 87500 333   87612=
22619 41598 33105 10047 20035 39968 40125 52018 70181 83500=
22641 82499 83302 10042 20025 30082 40097 52020 885// 333 88616=
22656 42997 53202 10044 20038 30054 40075 52012 85030=
22671 42998 82802 10033 20031 39977 40055 52011 8805/=
22717 42584 72603 10051 20037 39951 40142 52010 87500 333 87631=
22721 41597 43301 10050 20045 30017 40117 53015 72581 84500=
22727 83570 /3002 10069 20040 30080 40127 52007 555   53009=
22749 42498 82803 10049 20045 39977 40100 52007 889// 333 88915=
22768 41597 82602 10048 20041 30031 40081 52004 70282 885// 333 88624=
22778 42498 82902 10042 20028 30000 40071 52003 8357/=
22798 42471 82801 10039 20014 39934 40045 52010 885// 333 88614=
22802 42584 32701 10049 20023 30136 40159 52009 82532 555   53007=
22820 41497 82604 10057 20042 39997 40132 52004 76162 8552/=
22829 83/// /1802 10068 20032 30087 40137 52003=
22845 41497 82502 10049 20037 39957 40112 52005 76166 8672/ 333 86711=
22867 41598 62802 10056 20025 39986 40096 54001 70282 83530=
22869 41497 72603 10049 20034 39947 40093 54000 76166 85770 333 83710=
22876 41496 82503 10042 20030 30002 40074 52004 78082 8695/ 333 86919=
22889 42/// /2703 10040 20017 39984 40069 52002=
22891 42999 02703 10058 20029 30081 40169 58005=
22892 42997 02603 10050 20033 30167 40183 52006=
22897 83/70 /3202 10086 20050 30172 40186 52006=
22913 42597 82601 10077 20043 30126 40154 52004 885// 333   88627=
22917 42699 82803 10077 20048 30160 40171 52005 885// 333   88634=
22925 42584 72602 10063 20040 30012 40149 52005 87900 333   86927=
22939 42697 82803 10065 20022 39979 40139 52003 885// 333 88633=
22951 42498 82803 10048 20026 39834 40111 52002 885//=
22996 42998 22402 10013 20002 39886 40070 52003 82030=
23022 41497 81102 11021 21025 30017 40081 53006 72681 885//=
23058 41/93 90000 11096 21105 30092 40096 57005 74942=
23078 41596 81202 11026 21039 30010 40092 57003 78582 889//=
23112 42998 00604 11047 21047 30057 40066 52005=
23114 42598 21004 11038 21053 30058 40066 52011 82500=
23179 41596 81401 11016 21030 39974 40092 57009 77072 8802/=
23205 42398 60503 11011 21024 30038 40052 52012 86600 333 86708=
23226 42560 81403 11025 21065 39839 40055 54000 885// 333 88628=
23274 41497 70701 11018 21023 30047 40082 57011 78582 879//=
23324 42983 10705 11041 21053 39942 40020 53001 80001 333 91110=
23330 42697 81002 11026 21072 30048 40069 57003 8655/ 333 86640=
23339 42999 81202 11022 21086 30029 40073 56004 8807/=
23345 42497 82001 11045 21058 30081 40090 52003 885//=
23358 42697 83001 11046 21048 30002 40080 57002 8255/=
23376 43/// /1501 11013 21022 39960 40087 57009=
23412 42699 80104 11053 21068 39907 40004 53009 885// 333 88636=
23426 41958 80803 11024 21041 30014 40037 57013 77172 8802/=
23431 41996 80702 11029 21061 30035 40056 57006 77172 8802/=
23445 41697 80000 11036 21047 30054 40072 57004 70272 885//=
23453 42/// /0801 11032 21032 30049 40080 57005=
23471 42498 81904 10008 21003 30034 40102 52002 885// 333 88617=
23472 41495 81803 10002 21001 30037 40090 57007 78682 889//=
23503 41298 83602 10007 20000 39961 40010 52017 72052 886// 333 88704=
23527 41549 80103 11028 21028 39955 49992 56010 78582 889//=
23578 414// 81804 10012 20010 30060 40098 57003 70272 8677/=
23625 41996 80803 11018 21018 39933 49967 57019 77172 8802/=
23635 42597 81302 11021 21039 39955 40063 57010 885//=
23656 41497 82201 11003 21015 39997 40081 52004 77172 8872/=
23678 414// 81403 10010 20002 30070 40127 58003 77172 8872/=
23711 41497 83103 10008 21003 39794 49961 53028 77176 887// 333 86711=
23724 41598 83001 10003 20003 39886 49949 55006 76872 8802/=
23741 42598 81201 11029 21038 39967 40074 57006 885// 333 93502=
23748 42482 62401 11008 21011 39998 40083 54000 86500 333 86618=
23774 43/// /1701 10018 20012 30052 40127 52002=
23776 415// 81804 10007 20004 30083 40145 54000 70282 889//=
23804 42497 72802 10042 20021 39893 40035 52011 86530 333 86619 91110=
23823 41496 81503 11004 21008 39843 49981 56036 77187 8802/=
23847 42497 81802 11001 21010 30033 40074 57007 886//=
23862 42997 81802 10014 20003 30029 40124 52008 8807/=
23867 42599 81703 10018 21007 30051 40121 52003 885//=
23884 429// 81601 10012 21005 30090 40163 57001 8802/=
23891 41596 80000 11036 21041 39880 40194 58005 70282 889//=
23909 42498 82804 10054 20015 39794 40031 52007 885// 333 91112=
23929 41597 81804 10028 20019 39925 49990 56031 78082 889//=
23933 42697 81503 11007 21028 30001 40057 58018 885//=
23939 42/// /1804 11007 21022 30023 40064 57015=
23946 42497 81901 10005 21003 30031 40093 57002 886//=
23947 42497 81602 10001 21010 30015 40084 57007 886//=
23955 42484 42002 11002 21010 30056 40117 54000 84900=
23966 41596 20000 10004 21004 30027 40152 52005 71011 82500=
23973 46/// /1802 10019 20005 30104 40166 54001=
23975 428// 81801 10025 21014 30067 40173 53009 8807/=
23982 416// 80000 10001 21008 30038 40192 52001 70282 889//=
23986 414// 82302 11007 21014 39562 40190 57001 78582 883//=
23987 42597 70000 10027 21012 30100 40172 54000 86530=
24076 12598 70000 11072 21111 39775 40138 52010 60002 85530 333 21152 85633 555 7000/=
24125 83/// /0903 11116 21123 39870 40156 58004=
24136 42699 63201 11158 21185 30077 40180 52004 86500=
24143 42599 82401 11085 21102 30112 40163 52011 889//=
24194 12/// /2301 11149 21159 30090 40149 52008 60002 333 21149=
24219 42999 82001 11030 21050 39853 40151 57008 82036=
24261 62/// /3201 11179 21195 39526 40170 52010 60002 333 21189=
24263 12999 51302 11091 21102 39872 40148 52011 60002 81031 333 21091 47002 555 7000/=
24266 62/// /0201 11158 21171 39972 40155 53013 60002 333 21158=
24322 41498 82303 11058 21080 39544 40171 57001 72272 8565/ 333 85718=
24329 42999 80000 11086 21097 39878 40182 52002 8802/=
24338 42999 82402 11052 21073 39798 40183 52005 8807/=
24361 12999 22004 11149 21155 39892 40157 52015 60002 80001 333 21149 43006 555 7000/=
24382 12999 60000 11208 21227 39915 40181 52014 60002 85031 333 21220 47012 555=
24449 42599 72601 11081 21091 30085 40181 52011 84531=
24462 42499 22302 11184 21190 39223 40226 52022 82500=
24477 11597 82201 11123 21150 39331 40187 52007 69932 77172 8802/ 333 21143 47009 55068 555 7993/=
24507 415// 80000 11014 21028 39923 40163 57003 78582 889//=
24525 42998 80000 11054 21064 39871 40191 58008 8807/=
24538 42598 80000 11036 21065 30020 40197 57007 885//=
24557 41997 80000 11053 21057 30079 40189 52015 77172 8802/=
24588 12999 81705 11176 21182 39451 40221 52002 60002 80007 333 21216 47016 91110 555 7000/=
24606 425// 80000 11024 21046 39914 40180 57005 889//=
24639 42599 82501 11032 21071 30056 40209 54000 8455/=
24641 42599 82501 11024 21050 30057 40199 52009 883//=
24643 42599 80000 11032 21039 30087 40186 52013 889//=
24644 42598 82501 11022 21061 30059 40206 52012 8495/=
24656 41998 80401 11071 21092 30086 40189 52011 77177 8802/=
24661 42699 10000 11143 21156 39922 40198 53009 81500=
24668 41597 80000 11086 21097 30068 40186 52005 77172 8652/=
24679 12997 32801 11210 21222 38607 48385 53003 60002 80006 333 21219 47016 555=
24724 41599 82002 11032 21036 39676 40203 54000 70272 82531=
24725 41599 22701 11008 21030 39885 40211 58005 70281 82900=
24726 42999 82603 11049 21049 39764 40217 52002 84031=
24737 42498 82002 11019 21043 30041 40218 52004 886//=
24738 42698 81901 11031 21035 30042 40220 52006 8253/=
24753 41498 60000 11057 21071 30063 40179 52009 77172 8802/=
24758 41898 82101 11037 21045 39897 40191 52012 70272 8807/=
24768 41598 80401 11055 21062 39935 40160 52012 70272 885//=
24771 11697 80801 11088 21104 39815 40186 53002 69922 78582 8632/ 333 21093 47006 86936 555 7996/=
24802 425// 51802 11027 21043 39762 40211 57010 869//=
24817 415// 80000 11015 21026 39859 40213 57002 71522 889//=
24826 41598 72101 11046 21055 39782 40230 58005 77172 87500=
24843 42998 80000 11028 21035 39949 40201 52019 8807/=
24856 42598 82801 11063 21071 30031 40187 52014 885//=
24898 11598 80000 11112 21134 39418 40145 52004 69922 77172 82537 333 21117 47012 555 53006 7992/=
24908 42998 80000 11069 21081 39895 40230 57001 80005=
24918 425// 80000 11011 21014 39857 40228 57002 889//=
24928 42699 80000 11023 21032 39858 40235 57002 885//=
24933 42699 82701 11024 21030 39914 40230 52005 885//=
24944 42699 82502 11033 21044 39932 40225 52005 83931=
24951 41997 82702 11010 21023 30039 40205 52009 77172 8802/=
24959 41698 80401 11040 21051 30050 40179 52010 77172 8653/=
24962 41998 83001 11061 21065 39988 40176 52015 70272 8807/=
24967 42999 80000 11043 21044 39976 40195 52022 8801/=
24982 12999 03501 11123 21173 39617 40129 52005 60002 333 21138=
24988 12999 02801 11117 21151 39851 40109 52005 60002 333 21146=
25042 12598 52904 11034 21068 30102 40120 53008 60002 82530 333 21106 34108 91005 91106 555 7000/=
25051 12598 81901 11028 21055 30121 40128 53005 60002 84502 333  21048 47997 91102 555 7000/=
25129 12499 62301 11179 21191 30135 40146 52009 60002 85601 333 21201 3/121 47005 91101 555 7000/=
25138 12599 82902 11075 21092 30009 40132 53008 60002 8795/ 333 21092 47001 91104 555 1/105 7000/=
25151 12598 71201 11113 21119 30118 40124 53004 60002 86501 333 21148 3/114 47003 91105 555 7000/=
25206 11598 81902 11112 21140 30103 40144 52005 69922 77177 885// 333 21116 47011 555 7994/=
25282 42598 83502 11010 21039 30110 40116 57025 86531 333 91104=
25335 12998 83402 11066 21086 39766 40130 53006 60002 8805/ 333 21102 3/110 47021 91102 555 7000/=
25356 42999 13201 11147 21174 30029 40133 56002 80001 333 91103=
25378 42698 40000 11065 21092 30082 40111 56006 81530 333 21083 91101=
25399 42598 73506 10025 21018 30044 40053 57006 87500 333 91110=
25400 11496 30000 11202 21221 30099 40158 52012 60002 71000 83600 333 21210 47031 555 7994/=
25428 11684 80000 11063 21075 39796 40127 53006 69932 70272 8257/ 333 21075 3/105 46997 91102 555 7993/=
25551 41996 82701 11103 21109 30099 40130 56001 71022 84037 333 91102=
25561 41/92 90000 11077 21077 30119 40129 56002 74544 333 91102=
25563 42499 63304 11060 21071 30037 40115 56002 86600 333 21061 91105=
25703 11998 80000 11150 21168 39885 40163 52005 69902 77172 8802/ 333 21204 47019 555 53002=
25705 11698 80000 11132 21144 39811 40154 52006 69932 78582 889// 333 21150 47051 555 53002 7993/=
25715 11699 70000 11100 21103 39509 40142 52004 60012 70282 84930 333 21102 47010 555 53005 7003/=
25808 11997 80000 11121 21137 39261 40151 52003 60052 77072 8807/ 333 21127 47043 555 53000 7005/=
25913 11497 80602 10001 21000 39922 40067 52005 69962 78582 889// 333 21002 43003 555 53006 7996/=
25922 11596 80307 10025 20007 30051 40092 52008 60052 78082 889// 333 20021 91010 91112 555 53018 7016/=
25927 11599 80808 10049 20027 30061 40068 52008 60002 70282 889// 333 20038 91010 91112 555 53012 7008/=
26029 27/81 /2804 10097 20053 30179 40207 50001 70000 333 10118 20097 60007 91008 91110 555 20097=
26038 21670 21902 10015 20006 30168 40210 50003 70200 82500 333 10124 20013 60007 82637 555 1/000 20013 3/100 50070 52101=
26045 27581 62506 10062 20031 30199 40202 52008 70000 86/// 333 10113 20057 60007 86/30 91109 555 20057 50088=
26046 27981 22601 10033 20020 30112 40203 52004 70000 82/// 333 10112 20033 60007 82/75 555 20033 50071=
26058 27570 82502 10058 20035 30161 40196 52004 70000 88/// 333 10110 20058 60007 88/27 555 20058 50081=
26059 42597 52101 10068 20043 30173 40198 52004 82530=
26060 42598 22901 10085 20044 30174 40180 52006 82500=
26063 42597 13002 10077 20034 30178 40186 52006 81100=
26069 42999 02503 10030 20020 30080 40190 52003=
26072 42998 02701 10050 20033 30163 40183 52007=
26078 83/// /2501 10055 20033 30138 40187 52006=
26080 42570 82901 10054 20029 30150 40182 52005 885// 333 88630=
26094 42998 02501 10050 20028 30093 40169 52016=
26099 83/// /2902 10057 20034 39949 40164 52006=
26115 27/70 00401 10046 20034 30208 40216 50001 70000 80/// 333 10124 20044 60007 80/// 555 20044 50091=
26124 27/11 02101 10023 20024 30184 40214 50000 72030 80/// 333 10126 20017 60007 80/// 555 20017 50061=
26128 27/81 02502 10078 20065 30215 40218 54000 70000 80/// 333 10126 20074 60007 80/// 555 20074 50097=
26135 27/70 03100 10026 20026 30139 40215 52004 70000 80/// 333 10127 20025 60007 80/// 555 20025 50070=
26145 27/81 0//// 10042 20026 30170 40210 52004 70000 80/// 333 10126 20027 60007 80/// 555 20027 50072=
26157 42998 02802 10077 20053 30159 40209 52005=
26167 42964 02601 10052 20025 30090 40203 52004=
26179 42897 21203 10008 21003 30136 40166 57010 82030=
26214 21570 22503 10104 20058 30213 40220 54000 70200 82500  333  10123 20100 60007 82633  555  1/006 20100 3/006 50107=
26233 27/70 02601 10051 20046 30113 40221 52004 70000 80/// 333 10124 20050 60007 80/// 555 20050 50077=
26242 21/70 32301 10046 20040 30132 40219 52004 70200 80001 333 10117 20041 60007 80/// 555 1/001 20041 3/001 50081 52101=
26247 27/65 /2401 10016 20013 30144 40226 50004 70000 333 10128 20015 60007 555 20015 50085=
26258 42998 02601 10013 21003 30162 40218 52004=
26268 83/// /0000 11011 21014 30129 40211 52002 555   53007=
26275 42998 00000 10019 20006 30172 40203 52005=
26285 83/// /0000 10002 21004 30119 40199 52004 555   53007=
26291 42598 82901 10047 20026 30076 40186 52006 885// 333 88630=
26298 81996 02601 10017 20008 39960 40193 52005 71000=
26313 43/// /2502 10028 20027 40229 52001=
26339 43/// /0000 11009 21014 40238 52002=
26346 43/// /2701 10038 2//// 39984 40230 5//// 333 91002=
26359 42997 01801 10011 21003 30098 40229 52004=
26378 41996 01201 11025 21025 30126 40217 52007 71000=
26381 83/// /0000 11017 21023 30129 40208 52007 555   53007=
26389 81996 02701 10032 20017 39940 40207 52007 71000=
26393 82997 02602 10047 20025 39982 40191 52006=
26406 43/// /1301 10023 20023 30232 40239 5//// 333 91001=
26416 43/// /0901 10016 20014 30100 40242 5//// 333 91001=
26422 43/// ///// 1//// 2//// 4//// 5////=
26424 43/// /2901 10011 20006 30184 40285 5//// 333 91002=
26477 42997 00000 11006 21006 30090 40223 52008=
26479 82998 03202 10023 20008 39984 40218 51007=
26499 82997 03101 10016 20008 39969 40201 51008=
26509 41958 20801 10039 20037 30229 40238 52005 71000 80002 333 91001 91102=
26518 41950 40000 10032 20024 40242 52006 71000 80002 333 91001 91102=
26524 41932 30000 10027 20019 30106 40241 52005 71011 80001 333 91000 91100=
26531 42962 20000 10021 20011 40236 51005 82030 333 91000 91102=
26544 43/// /1600 11007 21007 30112 40237 52006 333 91000=
26554 /1958 00000 10019 20006 30062 40228 51004 71000=
26578 81958 02701 11004 21007 30013 40222 51008 71040=
26585 81996 02401 10028 20025 39936 40213 52006 71000=
26629 41935 20000 10035 20035 30140 40237 51004 72800 80001 333 91001 91102=
26633 41934 00000 11005 21014 30103 40238 51005 71000 333 91002 91102=
26643 /1959 02601 10010 20005 30066 40231 52008 71000=
26645 /2960 20000 10004 21002 39974 40240 52005 82030=
26653 /2960 00000 10005 21001 30062 40229 52005=
26666 /1450 20000 10046 20039 30004 40221 52009 71040 82600=
26695 81996 03001 10067 20056 39902 40209 52013 71011=
26730 41645 73301 10060 20058 30042 40235 52005 72841 87500 333 87635 91002 91103=
26759 /2576 80000 10087 20072 39988 40218 52007 886// 333 88627=
26763 /1956 63503 10086 20076 39985 40211 52010 71022 83015=
26774 /1958 03504 10077 20069 39966 40212 52010 71000=
26781 82997 03401 10069 20059 39919 40212 51010=
26784 82997 23604 10092 20064 39960 40207 52012 82030=
26795 82897 63502 10092 20077 39907 40195 51010 80070=
26825 /1557 73103 10105 20095 30043 40223 52004 71022 8653/ 333 86623=
26832 /1358 83201 10110 20098 30035 40225 52002 71022 885// 333 85708=
26850 /2566 33301 10090 20071 39949 40224 52006 83500 333 83623=
26853 /2460 70201 10110 20090 30026 40213 52008 875// 333 87719=
26855 /1858 60201 10103 20094 30004 40218 52008 71011 86050=
26863 /1556 63602 10101 20085 39976 40210 52013 71022 86500 333 86622=
26864 /1996 53501 10084 20078 30021 40210 52011 71022 80006=
26878 /1956 00103 10094 20083 39993 40199 52012 71000=
26882 82972 63502 10084 20072 39926 40199 52011 80001=
26887 /1958 03602 10094 20079 39987 40190 52010 71000=
26894 41958 03603 10081 20066 39965 40180 52007 71000=
26898 42997 03101 10095 20067 39925 40186 52009=
26941 /2997 20000 10088 20078 39986 40221 52005 80001=
26951 /1956 30402 10073 20071 30019 40218 52010 71000 80002=
26961 /1458 70102 10098 20095 30020 40209 52014 71011 875// 333 87616=
26966 /1957 03401 10104 20090 30029 40201 52013 71000=
26976 41996 03401 10088 20073 30013 40193 52012 71000=
26997 41959 03501 10092 20069 39965 40181 53008 71000=
27020 86/// /2903 10060 20043 39978 40123 52006=
27037 42698 82602 10068 20012 39973 40133 52003 8655/ 333 86640=
27051 42597 42403 10064 20019 39940 40104 54000 84500 333 84632=
27066 42698 70000 10047 20027 39924 40099 52003 85530 333 85633=
27108 83/// /2701 10029 20017 39991 40174 52006 555   53008=
27113 42560 82502 10047 20019 30001 40146 52003 8653/ 333 86628=
27164 82997 80000 10034 20034 39933 40119 52004 8802/=
27176 82999 82701 10052 20048 39908 40103 52003 8803/=
27208 82997 02702 10031 20016 30004 40182 52005=
27215 81996 22702 10018 20008 39963 40171 52004 71000 80001=
27223 42999 02602 10039 20014 30006 40152 52004=
27225 82997 22801 10056 20019 30030 40160 52005 80001=
27242 82998 02401 10029 20011 30009 40137 52004=
27252 41996 02702 10038 20031 39945 40130 52006 71000=
27271 82997 02701 10025 20020 39960 40115 54001=
27316 82998 02701 10020 20016 30002 40176 52005=
27321 82971 03001 10055 20024 30017 40167 52004=
27329 82972 03302 10052 20039 30039 40164 52005=
27333 82984 02703 10060 20026 39994 40150 52004=
27347 81995 62902 10036 20029 30004 40160 52006 71022 80070=
27355 82997 02804 10059 20042 39976 40138 54001=
27402 82997 23001 10036 20018 30010 40191 52007 80001=
27453 42997 03002 10083 20056 30017 40143 52007 333 91002 91103=
27507 81936 00000 10031 20028 39962 40202 52009 71200=
27511 82997 02801 10051 20044 39988 40184 52008=
27532 81996 22801 10064 20049 39953 40163 52009 71011 80002=
27539 82498 73302 10106 20067 39996 40160 52013 87500=
27593 82997 72502 10110 20085 39926 40109 53005 8003/=
27595 82597 82802 10129 20102 39976 40118 58004 885//=
27606 425// 73503 10100 20065 39946 40182 52015 87500 333 87620=
27612 829// 03201 10085 20054 39990 40182 51011=
27627 82597 80102 10112 20081 39907 40170 52013 885//=
27648 81496 83301 10111 20103 39987 40151 53008 71098 84931=
27697 81598 82203 10131 20082 39939 40126 57007 70292 8552/=
27707 82862 70102 10093 20075 39900 40188 52013 87070=
27719 82997 03001 10101 20081 39925 40172 52011=
27730 82997 23601 10106 20097 39973 40162 52011 82030=
27776 82570 82403 10135 20061 30019 40138 57004 885// 333   88623=
27785 82997 62504 10141 20059 39984 40138 57009 86030=
27799 42597 72202 10131 20077 30052 40140 57008 87500 333   87631=
27817 41996 00000 10083 20072 39925 40170 52006 71000=
27821 82997 63401 10077 20061 39895 40174 53007 80002=
27823 82599 20000 10098 20056 39908 40160 52004 82100=
27835 829// 51901 10073 20039 30002 40157 53001 80002=
27848 42997 22002 10098 20046 39984 40156 57005 82050=
27857 42997 22001 10086 20058 39999 40159 57007 80005=
27858 42997 02202 10102 20063 39851 40164 57006=
27872 82978 61401 10094 20051 39946 40157 57008 80004=
27906 42997 00000 10071 20055 39935 40172 52004=
27921 82997 00000 10103 20046 39907 40170 52002=
27928 42997 52002 10108 20036 39959 40160 57003 80001=
27930 42960 22003 10074 20031 39952 40168 57003 80001=
27935 42998 02302 10100 20041 39974 40165 57001=
27947 82/// /1501 10079 20043 3//// 4//// 5////=
27955 42970 22101 10087 20053 39924 40173 57007 80005=
27957 42997 01902 10078 20048 39960 40166 57007=
27962 42997 22903 10092 20053 39962 40171 57008 82030=
27972 42980 02305 10107 20055 39868 40171 57006=
27981 82997 23001 10083 20047 30049 40170 57007 80002=
27983 82970 72503 10116 20052 30037 40162 57007 87030=
27995 82974 62303 10131 20067 30111 40170 57006 80030=
28044 42597 42401 10073 20041 39845 49995 57007 84500=
28049 41997 61704 10033 20018 39844 40004 57018 70282 86050=
28076 42497 81901 11008 21014 30004 40076 57012 885//=
28097 41597 81601 10004 20004 30025 40102 57003 77072 8357/=
28144 42598 52402 10080 20053 39865 40016 56011 83501=
28165 41584 81701 10003 20001 39941 40042 58028 70262 885//=
28224 42598 72602 10091 20064 39851 40056 55001 87500=
28240 42998 82404 10077 20066 39729 40040 56014 8002/ 333 91110=
28275 42997 81404 11016 21024 30022 40084 57013 8805/=
28319 42598 62502 10089 20067 39923 40081 57006 83550=
28321 42899 82603 10083 20059 39870 40067 53003 8802/=
28334 41496 82303 10081 20059 39765 40062 56009 78082 883//=
28366 42997 81802 10006 21009 30018 40081 57014 8802/=
28367 41496 81602 10024 20024 39945 40070 58022 78084 889//=
28382 42598 82302 10003 20003 30037 40106 54001 885//=
28383 42997 81902 10003 20001 30028 40110 57002 8802/=
28434 41598 82302 10089 20075 39832 40079 55004 70282 889//=
28440 42597 72605 10087 20054 39725 40060 57016 87500 333 91111=
28465 41596 81804 10017 20009 30014 40090 57012 76162 885//=
28481 42997 82102 11002 21007 30017 40114 57001 8802/=
28491 42997 81701 10002 21001 30008 40117 54000 8807/=
28493 42597 81701 10002 21011 30033 40125 52004 885//=
28506 82597 82603 10131 20087 39996 40103 56005 885//=
28517 82597 82706 10130 20082 39964 40096 56009 885//=
28522 419// 82304 10094 20059 39845 40092 57010 70282 8805/=
28541 42598 62605 10076 20054 39606 40080 57017 85530 333 91110=
28552 42597 82105 10070 20047 39971 40079 57017 889//=
28573 42997 81902 11009 21018 30014 40117 57004 8807/=
28586 42997 81601 10002 21008 39975 40120 50003 8807/=
28588 41496 82402 10002 21008 39966 40123 54001 71022 886//=
28593 42497 81901 11003 21015 30031 40127 52003 883//=
28612 82498 72404 10128 20078 30010 40105 58009 87500=
28621 42597 82103 10113 20075 39881 40103 57012 885//=
28645 42496 61802 10054 20028 39819 40107 57011 86300=
28661 41996 81902 10045 20035 30012 40103 57008 71022 8805/=
28666 41495 81802 10012 20002 39936 40109 57006 71022 889//=
28676 426// 81902 10003 21018 39999 40126 57004 885//=
28688 42597 82601 11003 21013 39972 40129 54001 8252/=
28696 42597 80000 11010 21017 39992 40131 52005 889//=
28698 42597 80000 10007 21009 39978 40131 52006 889//=
28704 82998 82003 10120 20075 30040 40133 56007 8807/=
28711 81697 52304 10115 20068 39766 40126 57012 70282 83331=
28719 42999 72204 10090 20061 39732 40146 55007 87050=
28722 41596 81803 10099 20060 39997 40123 56009 78082 889//=
28748 42997 62402 10048 20019 39886 40121 56007 80002=
28764 419// 82002 10034 20032 39918 40115 57004 71022 8807/=
28766 415// 82402 10030 20030 39943 40130 57002 71022 885//=
28786 42997 22702 11009 21013 39979 40135 52003 80002=
28791 41596 82602 10008 21005 39987 40129 52004 71022 885//=
28799 81494 83001 10004 20003 39991 40135 52010 71022 8802/=
28825 42597 72001 10073 20050 39987 40154 57003 87500=
28838 42997 02804 10100 20044 39677 40132 57008=
28867 425// 62403 10032 21009 39874 40139 57003 86500=
28879 425// 82003 10018 20002 39852 40136 57004 885//=
28909 42997 62102 10117 20052 30070 40167 57008 86030=
28952 425// 52001 10049 20016 39947 40134 58005 85500=
28966 415// 82201 10038 20033 39856 40134 57005 70282 883//=
28978 415// 82303 10004 21002 39653 40141 57006 71082 889//=
28984 423// 82501 11004 21004 39659 40144 57005 889//=
29059 425// 80000 10024 21019 30048 40176 58001 885//=
29068 428// 81302 10025 21027 30104 40187 54000 8807/=
29111 42999 01701 11007 21019 30042 40129 52002=
29122 42999 31501 11012 21018 30074 40146 52002 80030=
29149 42598 61501 10026 21019 30053 40183 52004 86500=
29154 42597 81601 10022 21018 30037 40178 52003 885//=
29203 42399 81502 11013 21022 30023 40125 52002 886// 333 88707=
29209 42598 70000 11034 21037 30009 40136 52003 87500=
29231 42998 01302 11013 21015 30067 40164 52003=
29253 426// 80000 10031 21030 30018 40187 53001 885//=
29263 42580 81503 10003 21011 30097 40202 53001 8695/=
29274 42983 71003 11001 21007 30099 40212 54000 80009=
29276 46/// /0601 11007 21021 30008 40225 54001=
29282 42584 80501 10009 21016 30051 40219 57002 889//=
29313 42998 31702 10001 21008 30025 40147 53003 83030=
29328 41996 01302 11036 21042 30023 40163 53004 71000=
29332 42498 81602 10002 21012 30027 40169 52003 82531=
29348 42997 01701 10012 21022 30042 40187 52002=
29363 46/// /0000 11013 21019 39977 40205 54000=
29367 46/// /1701 10005 21028 39982 40209 52002=
29374 425// 80901 11018 21023 30097 40217 58001 885//=
29379 41596 80401 11009 21011 30009 40221 57002 71022 886//=
29405 42597 80902 11017 21026 39993 40139 52002 8353/=
29418 42998 01301 11028 21036 39982 40141 54000=
29430 42598 81301 10027 21010 30004 40177 58001 885// 333 88620=
29456 425// 51401 10024 21011 39949 40204 54000 82401=
29464 415// 82302 10025 21006 39927 40215 52008 72522 889//=
29467 41597 72401 10029 21002 39892 40210 52004 76162 86530=
29471 41995 20000 11044 21043 39984 40215 54000 71000 80001=
29477 42998 72401 11031 21041 30006 40215 52001 86015=
29481 42999 83101 11013 21014 39977 40220 54000 8802/=
29485 425// 82901 11007 21012 39907 40218 53002 889//=
29524 42998 01601 11019 21027 39988 40151 52001=
29551 42998 80801 10016 21025 30017 40198 58002 80001=
29553 41997 30000 10010 20002 39848 40211 54000 71011 80001=
29557 42998 80901 11003 21029 39939 40204 57002 86077=
29558 42998 81902 10006 21014 39813 40210 58003 82036=
29561 418// 70000 10015 21001 39890 40209 52003 76122 86071=
29562 42584 80000 11027 21040 39804 40221 52004 889//=
29563 42999 20000 11050 21055 39625 40226 52003 80001=
29566 41596 82401 11003 21024 39872 40216 52002 74011 886//=
29571 42962 80000 11029 21033 39916 40213 52002 80007=
29576 41596 80000 11000 21004 39747 40212 53002 78582 889//=
29578 42999 50000 10000 21002 39711 40204 54000 80001=
29580 414// 83401 11004 21007 39759 40211 53002 78582 889//=
29581 425// 73001 10002 21005 39956 40211 52002 8493/=
29587 415// 82601 10002 20000 39892 40208 52001 77176 8802/=
29594 425// 82601 10022 20019 39812 40192 57003 889//=
29602 42599 61201 11004 21014 39992 40132 52002 86500=
29605 41498 80000 11007 21016 39989 40130 52004 72682 889//=
29612 42998 01403 11011 21017 39992 40143 52003=
29625 42498 81503 11000 21007 39976 40151 57003 889// 333 88918=
29631 42698 61201 10021 20005 39981 40164 57004 86500=
29636 42598 60000 10009 21007 39963 40179 57003 86300=
29638 42598 81403 10028 20009 30007 40172 57002 889//=
29645 42598 61601 10016 21017 30008 40193 54000 82501=
29653 42997 71101 11003 21024 39735 40216 52001 80001=
29654 42999 20901 11007 21031 39592 40206 57004 81041=
29662 41/92 91001 11026 21026 39814 40219 52003 74542=
29664 42998 22401 11006 21010 39812 40218 52001 80001=
29674 46/// /0000 10000 21002 3//// 4//// 5////=
29698 425// 83101 10028 20002 39683 40186 54000 8597/=
29706 42698 61503 11011 21018 39987 40132 52002 84501=
29712 42698 81502 11012 21018 30001 40144 54001 889//=
29724 42999 61902 10006 21004 39954 40155 52004 80002=
29726 42598 81803 10022 20004 39997 40162 57001 883//=
29736 41598 21702 10011 21003 39932 40183 57003 70281 82500=
29752 415// 70000 11042 21044 38808 48470 53002 71082 82541=
29759 419// 20000 11024 21043 39203 40227 58003 70281 82030=
29766 42699 81101 11005 21008 39868 40222 52004 885//=
29768 46/// /0801 10022 20008 39901 40216 52003=
29771 415// 80000 10000 21006 39243 40209 52003 70282 889//=
29772 43/// /1801 10013 21002 39624 40211 52003=
29789 41596 80000 10007 21001 39015 40176 52001 78582 889//=
29802 424// 82301 10007 20001 39986 40128 52004 8333/=
29807 425// 52502 10001 21002 30015 40132 52009 82530=
29813 41499 81803 10003 21010 39956 40149 53003 70282 8495/=
29814 42999 81503 11014 21024 30000 40145 52002 8805/=
29822 41597 81903 10011 21008 30002 40165 53003 70282 889//=
29827 41697 61803 10002 21009 30012 40165 52003 70282 86900=
29838 42997 21501 10006 21005 39951 40182 58002 82030=
29864 46/// /3202 11023 21029 39571 40222 52003=
29866 419// 80000 10006 20003 39897 40215 53006 74442 8807/=
29869 426// 80000 10013 20005 39849 40219 52004 885//=
29874 43/// /0000 10008 20006 39824 40221 52003=
29915 42598 82003 10008 21007 39992 40150 54000 889// 333 88922=
29923 43/// /1503 10001 21010 39905 40179 52004=
29937 42599 61601 11003 21021 39969 40190 52003 84505=
29939 41598 82101 10011 21013 39920 40201 52002 72582 889//=
29956 42984 00000 11022 21028 39664 40224 54000=
29998 42999 60000 11031 21056 38567 48436 52002 82022=



SMUS20 KWBC 192100
AAXX 19214